Simon Bolivar International Airport
SEGU : now visible

Airfield :











YOU CAN JOIN US ON...

 
LOGIN :

Register | Disclaimer

   EN    FR    IT 

 









Legend :    VFR   Marginal VFR   IFR   Intensive IFR   Very Intensive IFR
Visi :
Ceiling :
>= 8 km
>= 3000ft
5 to 8 km
1000 to 3000 ft
1500m to 5 km
500 to 1000 ft
800 to 1500m
200 to 500 ft
< 800m
< 200 ft
Symbols :   Thunderstorms  Fog  Heavy snow  Heavy precipitations  Wind > 20 kt






- Airport Elevation : 19 ft
- IATA code : GYE


SEGU - Simon Bolivar International

CURRENT METAR :
  • 051900Z 07004KT 050V130 9999 SCT026 OVC100 28/21 Q1010 NOSIG RMK A2985

EXPIRED METARs :
  • 051800Z 13004KT 070V170 9999 BKN023 SCT100 27/21 Q1011 NOSIG RMK A2986
  • 051700Z 11004KT 070V150 9999 BKN023 28/21 Q1012 NOSIG RMK A2988

TAF SEGU
Valid from the 05 at 18:00 until the 06 at 18:00 UTC


051610Z 0518/0618 16005KT 9999 SCT023 BKN040
PROB40
TEMPO 0520/0522 RA
BECMG 0600/0602 23010KT FEW010 BKN030
BECMG 0606/0608 22004KT BKN026 BKN100
BECMG 0612/0614 SCT030 BKN100 TX29/0520Z TN22/0610Z
SEGU FIR / South America



MET'MAP, your aeronautical weather chart ! - Copyright ORBIFLY December 2007 - Disclaimer

ORBIFLY MET'MAP TEAM :

Programming & Development : Alexandra Zaïnal
Concept & original design : Baudouin d'Aumeries
Assistance for programming : Marc-Olivier Méhu
Technical & hardware support : Manuel Goepfert

Contact : metmap@orbifly.com




SOURCES & CREDITS :

   NOAA       Earth
Advisory